sensor_id;sensor_type;location;lat;lon;timestamp;temperature;humidity
17843;DHT22;69286;48.222;16.332;2024-02-26T00:01:51;7.90;99.90
17843;DHT22;69286;48.222;16.332;2024-02-26T00:04:18;7.80;99.90
17843;DHT22;69286;48.222;16.332;2024-02-26T00:06:45;7.80;99.90
17843;DHT22;69286;48.222;16.332;2024-02-26T00:09:12;7.70;99.90
17843;DHT22;69286;48.222;16.332;2024-02-26T00:11:39;7.70;99.90
17843;DHT22;69286;48.222;16.332;2024-02-26T00:14:05;7.70;99.90
17843;DHT22;69286;48.222;16.332;2024-02-26T00:16:32;7.60;99.90
17843;DHT22;69286;48.222;16.332;2024-02-26T00:19:01;7.70;99.90
17843;DHT22;69286;48.222;16.332;2024-02-26T00:21:28;7.60;99.90
17843;DHT22;69286;48.222;16.332;2024-02-26T00:23:55;7.60;99.90
17843;DHT22;69286;48.222;16.332;2024-02-26T00:26:22;7.60;99.90
17843;DHT22;69286;48.222;16.332;2024-02-26T00:28:49;7.50;99.90
17843;DHT22;69286;48.222;16.332;2024-02-26T00:31:16;7.50;99.90
17843;DHT22;69286;48.222;16.332;2024-02-26T00:33:43;7.50;99.90
17843;DHT22;69286;48.222;16.332;2024-02-26T00:36:11;7.50;99.90
17843;DHT22;69286;48.222;16.332;2024-02-26T00:38:38;7.40;99.90
17843;DHT22;69286;48.222;16.332;2024-02-26T00:41:06;7.40;99.90
17843;DHT22;69286;48.222;16.332;2024-02-26T00:43:33;7.40;99.90
17843;DHT22;69286;48.222;16.332;2024-02-26T00:46:00;7.30;99.90
17843;DHT22;69286;48.222;16.332;2024-02-26T00:48:27;7.30;99.90
17843;DHT22;69286;48.222;16.332;2024-02-26T00:50:54;7.20;99.90
17843;DHT22;69286;48.222;16.332;2024-02-26T00:53:23;7.20;99.90
17843;DHT22;69286;48.222;16.332;2024-02-26T00:55:50;7.20;99.90
17843;DHT22;69286;48.222;16.332;2024-02-26T00:58:17;7.10;99.90
17843;DHT22;69286;48.222;16.332;2024-02-26T01:00:44;7.10;99.90
17843;DHT22;69286;48.222;16.332;2024-02-26T01:03:11;7.10;99.90
17843;DHT22;69286;48.222;16.332;2024-02-26T01:05:38;7.10;99.90
17843;DHT22;69286;48.222;16.332;2024-02-26T01:08:05;7.10;99.90
17843;DHT22;69286;48.222;16.332;2024-02-26T01:10:34;7.10;99.90
17843;DHT22;69286;48.222;16.332;2024-02-26T01:13:01;7.10;99.90
17843;DHT22;69286;48.222;16.332;2024-02-26T01:15:28;7.10;99.90
17843;DHT22;69286;48.222;16.332;2024-02-26T01:17:55;7.10;99.90
17843;DHT22;69286;48.222;16.332;2024-02-26T01:20:22;7.10;99.90
17843;DHT22;69286;48.222;16.332;2024-02-26T01:22:48;7.10;99.90
17843;DHT22;69286;48.222;16.332;2024-02-26T01:25:15;7.10;99.90
17843;DHT22;69286;48.222;16.332;2024-02-26T01:27:44;7.10;99.90
17843;DHT22;69286;48.222;16.332;2024-02-26T01:30:12;7.10;99.90
17843;DHT22;69286;48.222;16.332;2024-02-26T01:32:41;7.00;99.90
17843;DHT22;69286;48.222;16.332;2024-02-26T01:35:08;7.00;99.90
17843;DHT22;69286;48.222;16.332;2024-02-26T01:37:36;7.00;99.90
17843;DHT22;69286;48.222;16.332;2024-02-26T01:40:04;7.00;99.90
17843;DHT22;69286;48.222;16.332;2024-02-26T01:42:32;6.90;99.90
17843;DHT22;69286;48.222;16.332;2024-02-26T01:45:01;6.90;99.90
17843;DHT22;69286;48.222;16.332;2024-02-26T01:47:28;6.90;99.90
17843;DHT22;69286;48.222;16.332;2024-02-26T01:49:55;6.80;99.90
17843;DHT22;69286;48.222;16.332;2024-02-26T01:52:23;6.80;99.90
17843;DHT22;69286;48.222;16.332;2024-02-26T01:54:50;6.80;99.90
17843;DHT22;69286;48.222;16.332;2024-02-26T01:57:17;6.80;99.90
17843;DHT22;69286;48.222;16.332;2024-02-26T01:59:44;6.80;99.90
17843;DHT22;69286;48.222;16.332;2024-02-26T02:02:15;6.80;99.90
17843;DHT22;69286;48.222;16.332;2024-02-26T02:04:42;6.80;99.90
17843;DHT22;69286;48.222;16.332;2024-02-26T02:07:09;6.80;99.90
17843;DHT22;69286;48.222;16.332;2024-02-26T02:09:36;6.80;99.90
17843;DHT22;69286;48.222;16.332;2024-02-26T02:12:04;6.80;99.90
17843;DHT22;69286;48.222;16.332;2024-02-26T02:14:32;6.80;99.90
17843;DHT22;69286;48.222;16.332;2024-02-26T02:16:59;6.70;99.90
17843;DHT22;69286;48.222;16.332;2024-02-26T02:19:28;6.70;99.90
17843;DHT22;69286;48.222;16.332;2024-02-26T02:21:56;6.70;99.90
17843;DHT22;69286;48.222;16.332;2024-02-26T02:24:23;6.70;99.90
17843;DHT22;69286;48.222;16.332;2024-02-26T02:26:50;6.60;99.90
17843;DHT22;69286;48.222;16.332;2024-02-26T02:29:17;6.60;99.90
17843;DHT22;69286;48.222;16.332;2024-02-26T02:31:44;6.60;99.90
17843;DHT22;69286;48.222;16.332;2024-02-26T02:34:11;6.60;99.90
17843;DHT22;69286;48.222;16.332;2024-02-26T02:36:49;6.60;99.90
17843;DHT22;69286;48.222;16.332;2024-02-26T02:39:17;6.50;99.90
17843;DHT22;69286;48.222;16.332;2024-02-26T02:41:44;6.50;99.90
17843;DHT22;69286;48.222;16.332;2024-02-26T02:44:11;6.60;99.90
17843;DHT22;69286;48.222;16.332;2024-02-26T02:46:38;6.70;99.90
17843;DHT22;69286;48.222;16.332;2024-02-26T02:49:08;6.50;99.90
17843;DHT22;69286;48.222;16.332;2024-02-26T02:51:36;6.50;99.90
17843;DHT22;69286;48.222;16.332;2024-02-26T02:54:03;6.50;99.90
17843;DHT22;69286;48.222;16.332;2024-02-26T02:56:31;6.40;99.90
17843;DHT22;69286;48.222;16.332;2024-02-26T02:58:58;6.40;99.90
17843;DHT22;69286;48.222;16.332;2024-02-26T03:01:25;6.40;99.90
17843;DHT22;69286;48.222;16.332;2024-02-26T03:03:52;6.40;99.90
17843;DHT22;69286;48.222;16.332;2024-02-26T03:06:19;6.40;99.90
17843;DHT22;69286;48.222;16.332;2024-02-26T03:08:46;6.50;99.90
17843;DHT22;69286;48.222;16.332;2024-02-26T03:11:14;6.40;99.90
17843;DHT22;69286;48.222;16.332;2024-02-26T03:13:43;6.50;99.90
17843;DHT22;69286;48.222;16.332;2024-02-26T03:16:10;6.50;99.90
17843;DHT22;69286;48.222;16.332;2024-02-26T03:18:38;6.60;99.90
17843;DHT22;69286;48.222;16.332;2024-02-26T03:21:05;6.60;99.90
17843;DHT22;69286;48.222;16.332;2024-02-26T03:23:32;6.60;99.90
17843;DHT22;69286;48.222;16.332;2024-02-26T03:26:02;6.50;99.90
17843;DHT22;69286;48.222;16.332;2024-02-26T03:28:29;6.50;99.90
17843;DHT22;69286;48.222;16.332;2024-02-26T03:30:57;6.50;99.90
17843;DHT22;69286;48.222;16.332;2024-02-26T03:33:25;6.50;99.90
17843;DHT22;69286;48.222;16.332;2024-02-26T03:35:52;6.50;99.90
17843;DHT22;69286;48.222;16.332;2024-02-26T03:38:19;6.50;99.90
17843;DHT22;69286;48.222;16.332;2024-02-26T03:40:46;6.50;99.90
17843;DHT22;69286;48.222;16.332;2024-02-26T03:43:13;6.40;99.90
17843;DHT22;69286;48.222;16.332;2024-02-26T03:45:40;6.40;99.90
17843;DHT22;69286;48.222;16.332;2024-02-26T03:48:08;6.40;99.90
17843;DHT22;69286;48.222;16.332;2024-02-26T03:50:35;6.40;99.90
17843;DHT22;69286;48.222;16.332;2024-02-26T03:53:02;6.40;99.90
17843;DHT22;69286;48.222;16.332;2024-02-26T03:55:29;6.30;99.90
17843;DHT22;69286;48.222;16.332;2024-02-26T03:57:56;6.30;99.90
17843;DHT22;69286;48.222;16.332;2024-02-26T04:00:23;6.30;99.90
17843;DHT22;69286;48.222;16.332;2024-02-26T04:02:51;6.30;99.90
17843;DHT22;69286;48.222;16.332;2024-02-26T04:05:19;6.30;99.90
17843;DHT22;69286;48.222;16.332;2024-02-26T04:07:46;6.40;99.90
17843;DHT22;69286;48.222;16.332;2024-02-26T04:10:13;6.40;99.90
17843;DHT22;69286;48.222;16.332;2024-02-26T04:12:40;6.40;99.90
17843;DHT22;69286;48.222;16.332;2024-02-26T04:15:07;6.40;99.90
17843;DHT22;69286;48.222;16.332;2024-02-26T04:17:35;6.50;99.90
17843;DHT22;69286;48.222;16.332;2024-02-26T04:20:03;6.40;99.90
17843;DHT22;69286;48.222;16.332;2024-02-26T04:22:32;6.40;99.90
17843;DHT22;69286;48.222;16.332;2024-02-26T04:24:59;6.40;99.90
17843;DHT22;69286;48.222;16.332;2024-02-26T04:27:26;6.40;99.90
17843;DHT22;69286;48.222;16.332;2024-02-26T04:29:53;6.40;99.90
17843;DHT22;69286;48.222;16.332;2024-02-26T04:32:20;6.30;99.90
17843;DHT22;69286;48.222;16.332;2024-02-26T04:34:47;6.30;99.90
17843;DHT22;69286;48.222;16.332;2024-02-26T04:37:14;6.30;99.90
17843;DHT22;69286;48.222;16.332;2024-02-26T04:39:42;6.30;99.90
17843;DHT22;69286;48.222;16.332;2024-02-26T04:42:09;6.30;99.90
17843;DHT22;69286;48.222;16.332;2024-02-26T04:44:36;6.20;99.90
17843;DHT22;69286;48.222;16.332;2024-02-26T04:47:03;6.20;99.90
17843;DHT22;69286;48.222;16.332;2024-02-26T04:49:30;6.20;99.90
17843;DHT22;69286;48.222;16.332;2024-02-26T04:51:57;6.20;99.90
17843;DHT22;69286;48.222;16.332;2024-02-26T04:54:24;6.20;99.90
17843;DHT22;69286;48.222;16.332;2024-02-26T04:56:52;6.10;99.90
17843;DHT22;69286;48.222;16.332;2024-02-26T04:59:19;6.20;99.90
17843;DHT22;69286;48.222;16.332;2024-02-26T05:01:46;6.10;99.90
17843;DHT22;69286;48.222;16.332;2024-02-26T05:04:13;6.10;99.90
17843;DHT22;69286;48.222;16.332;2024-02-26T05:06:40;6.10;99.90
17843;DHT22;69286;48.222;16.332;2024-02-26T05:09:06;6.10;99.90
17843;DHT22;69286;48.222;16.332;2024-02-26T05:11:33;6.00;99.90
17843;DHT22;69286;48.222;16.332;2024-02-26T05:14:02;6.00;99.90
17843;DHT22;69286;48.222;16.332;2024-02-26T05:16:29;6.00;99.90
17843;DHT22;69286;48.222;16.332;2024-02-26T05:18:57;5.90;99.90
17843;DHT22;69286;48.222;16.332;2024-02-26T05:21:23;5.90;99.90
17843;DHT22;69286;48.222;16.332;2024-02-26T05:23:50;5.90;99.90
17843;DHT22;69286;48.222;16.332;2024-02-26T05:26:20;5.80;99.90
17843;DHT22;69286;48.222;16.332;2024-02-26T05:28:48;5.80;99.90
17843;DHT22;69286;48.222;16.332;2024-02-26T05:31:17;5.80;99.90
17843;DHT22;69286;48.222;16.332;2024-02-26T05:33:44;5.80;99.90
17843;DHT22;69286;48.222;16.332;2024-02-26T05:36:18;5.80;99.90
17843;DHT22;69286;48.222;16.332;2024-02-26T05:38:45;5.80;99.90
17843;DHT22;69286;48.222;16.332;2024-02-26T05:41:12;5.70;99.90
17843;DHT22;69286;48.222;16.332;2024-02-26T05:43:39;5.80;99.90
17843;DHT22;69286;48.222;16.332;2024-02-26T05:46:06;5.70;99.90
17843;DHT22;69286;48.222;16.332;2024-02-26T05:48:35;5.80;99.90
17843;DHT22;69286;48.222;16.332;2024-02-26T05:51:02;5.70;99.90
17843;DHT22;69286;48.222;16.332;2024-02-26T05:53:29;5.70;99.90
17843;DHT22;69286;48.222;16.332;2024-02-26T05:55:56;5.70;99.90
17843;DHT22;69286;48.222;16.332;2024-02-26T05:58:23;5.80;99.90
17843;DHT22;69286;48.222;16.332;2024-02-26T06:00:50;5.80;99.90
17843;DHT22;69286;48.222;16.332;2024-02-26T06:03:17;5.80;99.90
17843;DHT22;69286;48.222;16.332;2024-02-26T06:05:46;5.80;99.90
17843;DHT22;69286;48.222;16.332;2024-02-26T06:08:13;5.90;99.90
17843;DHT22;69286;48.222;16.332;2024-02-26T06:10:40;6.00;99.90
17843;DHT22;69286;48.222;16.332;2024-02-26T06:13:07;6.00;99.90
17843;DHT22;69286;48.222;16.332;2024-02-26T06:15:34;6.10;99.90
17843;DHT22;69286;48.222;16.332;2024-02-26T06:18:01;6.20;99.90
17843;DHT22;69286;48.222;16.332;2024-02-26T06:20:28;6.20;99.90
17843;DHT22;69286;48.222;16.332;2024-02-26T06:22:56;6.40;99.90
17843;DHT22;69286;48.222;16.332;2024-02-26T06:25:23;6.60;99.90
17843;DHT22;69286;48.222;16.332;2024-02-26T06:27:51;6.90;99.90
17843;DHT22;69286;48.222;16.332;2024-02-26T06:30:18;7.20;99.90
17843;DHT22;69286;48.222;16.332;2024-02-26T06:32:45;7.50;99.90
17843;DHT22;69286;48.222;16.332;2024-02-26T06:35:12;7.80;99.90
17843;DHT22;69286;48.222;16.332;2024-02-26T06:37:39;8.00;99.90
17843;DHT22;69286;48.222;16.332;2024-02-26T06:40:08;8.20;99.90
17843;DHT22;69286;48.222;16.332;2024-02-26T06:42:35;8.30;99.90
17843;DHT22;69286;48.222;16.332;2024-02-26T06:45:03;8.40;99.90
17843;DHT22;69286;48.222;16.332;2024-02-26T06:47:30;8.60;99.90
17843;DHT22;69286;48.222;16.332;2024-02-26T06:49:57;8.70;99.90
17843;DHT22;69286;48.222;16.332;2024-02-26T06:52:24;8.90;99.90
17843;DHT22;69286;48.222;16.332;2024-02-26T06:54:51;9.00;99.90
17843;DHT22;69286;48.222;16.332;2024-02-26T06:57:20;9.10;99.90
17843;DHT22;69286;48.222;16.332;2024-02-26T06:59:47;9.30;99.90
17843;DHT22;69286;48.222;16.332;2024-02-26T07:02:14;9.60;99.90
17843;DHT22;69286;48.222;16.332;2024-02-26T07:04:42;9.70;99.90
17843;DHT22;69286;48.222;16.332;2024-02-26T07:07:09;9.90;99.90
17843;DHT22;69286;48.222;16.332;2024-02-26T07:09:36;10.20;99.90
17843;DHT22;69286;48.222;16.332;2024-02-26T07:12:03;10.70;99.90
17843;DHT22;69286;48.222;16.332;2024-02-26T07:14:31;10.40;99.90
17843;DHT22;69286;48.222;16.332;2024-02-26T07:16:59;10.70;99.90
17843;DHT22;69286;48.222;16.332;2024-02-26T07:19:26;11.30;99.90
17843;DHT22;69286;48.222;16.332;2024-02-26T07:21:53;11.70;99.90
17843;DHT22;69286;48.222;16.332;2024-02-26T07:24:20;11.50;99.90
17843;DHT22;69286;48.222;16.332;2024-02-26T07:26:46;11.20;99.90
17843;DHT22;69286;48.222;16.332;2024-02-26T07:29:13;11.20;99.90
17843;DHT22;69286;48.222;16.332;2024-02-26T07:31:42;11.30;99.90
17843;DHT22;69286;48.222;16.332;2024-02-26T07:34:09;11.50;99.90
17843;DHT22;69286;48.222;16.332;2024-02-26T07:36:35;11.30;99.90
17843;DHT22;69286;48.222;16.332;2024-02-26T07:39:02;11.40;99.90
17843;DHT22;69286;48.222;16.332;2024-02-26T07:41:29;11.40;99.90
17843;DHT22;69286;48.222;16.332;2024-02-26T07:43:56;11.70;99.90
17843;DHT22;69286;48.222;16.332;2024-02-26T07:46:23;11.80;99.90
17843;DHT22;69286;48.222;16.332;2024-02-26T07:48:52;11.70;99.90
17843;DHT22;69286;48.222;16.332;2024-02-26T07:51:19;11.70;99.90
17843;DHT22;69286;48.222;16.332;2024-02-26T07:53:46;11.70;99.90
17843;DHT22;69286;48.222;16.332;2024-02-26T07:56:13;11.70;99.90
17843;DHT22;69286;48.222;16.332;2024-02-26T07:58:40;11.80;99.90
17843;DHT22;69286;48.222;16.332;2024-02-26T08:01:07;12.20;99.90
17843;DHT22;69286;48.222;16.332;2024-02-26T08:03:34;12.40;99.90
17843;DHT22;69286;48.222;16.332;2024-02-26T08:06:02;12.60;99.90
17843;DHT22;69286;48.222;16.332;2024-02-26T08:08:29;12.60;99.60
17843;DHT22;69286;48.222;16.332;2024-02-26T08:10:56;12.60;99.60
17843;DHT22;69286;48.222;16.332;2024-02-26T08:13:23;12.30;99.80
17843;DHT22;69286;48.222;16.332;2024-02-26T08:15:50;12.00;99.90
17843;DHT22;69286;48.222;16.332;2024-02-26T08:18:16;11.70;99.90
17843;DHT22;69286;48.222;16.332;2024-02-26T08:20:43;11.30;99.90
17843;DHT22;69286;48.222;16.332;2024-02-26T08:23:12;11.10;99.90
17843;DHT22;69286;48.222;16.332;2024-02-26T08:25:39;11.20;99.90
17843;DHT22;69286;48.222;16.332;2024-02-26T08:28:06;11.30;99.90
17843;DHT22;69286;48.222;16.332;2024-02-26T08:30:33;11.10;99.90
17843;DHT22;69286;48.222;16.332;2024-02-26T08:33:01;11.50;99.90
17843;DHT22;69286;48.222;16.332;2024-02-26T08:35:28;11.80;99.90
17843;DHT22;69286;48.222;16.332;2024-02-26T08:37:55;11.90;99.90
17843;DHT22;69286;48.222;16.332;2024-02-26T08:40:24;12.00;99.90
17843;DHT22;69286;48.222;16.332;2024-02-26T08:42:50;12.20;99.50
17843;DHT22;69286;48.222;16.332;2024-02-26T08:45:17;12.20;99.30
17843;DHT22;69286;48.222;16.332;2024-02-26T08:47:44;12.00;99.40
17843;DHT22;69286;48.222;16.332;2024-02-26T08:50:12;11.90;99.90
17843;DHT22;69286;48.222;16.332;2024-02-26T08:52:39;11.90;99.40
17843;DHT22;69286;48.222;16.332;2024-02-26T08:55:06;11.80;99.60
17843;DHT22;69286;48.222;16.332;2024-02-26T08:57:35;11.90;99.60
17843;DHT22;69286;48.222;16.332;2024-02-26T09:00:05;12.00;99.40
17843;DHT22;69286;48.222;16.332;2024-02-26T09:02:32;12.00;99.00
17843;DHT22;69286;48.222;16.332;2024-02-26T09:04:59;11.90;99.30
17843;DHT22;69286;48.222;16.332;2024-02-26T09:07:26;12.10;99.10
17843;DHT22;69286;48.222;16.332;2024-02-26T09:09:53;12.10;99.30
17843;DHT22;69286;48.222;16.332;2024-02-26T09:12:20;12.10;99.10
17843;DHT22;69286;48.222;16.332;2024-02-26T09:14:48;12.00;99.10
17843;DHT22;69286;48.222;16.332;2024-02-26T09:17:16;12.20;99.10
17843;DHT22;69286;48.222;16.332;2024-02-26T09:19:43;12.30;98.60
17843;DHT22;69286;48.222;16.332;2024-02-26T09:22:10;12.40;98.90
17843;DHT22;69286;48.222;16.332;2024-02-26T09:24:37;12.70;98.70
17843;DHT22;69286;48.222;16.332;2024-02-26T09:27:04;12.90;97.60
17843;DHT22;69286;48.222;16.332;2024-02-26T09:29:31;13.20;97.30
17843;DHT22;69286;48.222;16.332;2024-02-26T09:32:00;13.40;97.20
17843;DHT22;69286;48.222;16.332;2024-02-26T09:34:28;13.50;96.70
17843;DHT22;69286;48.222;16.332;2024-02-26T09:36:55;13.70;96.20
17843;DHT22;69286;48.222;16.332;2024-02-26T09:39:22;13.70;95.30
17843;DHT22;69286;48.222;16.332;2024-02-26T09:41:49;13.80;95.50
17843;DHT22;69286;48.222;16.332;2024-02-26T09:44:19;14.20;95.10
17843;DHT22;69286;48.222;16.332;2024-02-26T09:46:47;14.50;94.10
17843;DHT22;69286;48.222;16.332;2024-02-26T09:49:16;14.50;93.40
17843;DHT22;69286;48.222;16.332;2024-02-26T09:51:44;14.50;93.00
17843;DHT22;69286;48.222;16.332;2024-02-26T09:54:12;14.70;92.30
17843;DHT22;69286;48.222;16.332;2024-02-26T09:56:39;14.70;91.90
17843;DHT22;69286;48.222;16.332;2024-02-26T09:59:10;14.90;91.80
17843;DHT22;69286;48.222;16.332;2024-02-26T10:01:42;15.10;91.20
17843;DHT22;69286;48.222;16.332;2024-02-26T10:04:11;15.20;90.80
17843;DHT22;69286;48.222;16.332;2024-02-26T10:06:40;15.30;90.60
17843;DHT22;69286;48.222;16.332;2024-02-26T10:09:10;15.00;90.10
17843;DHT22;69286;48.222;16.332;2024-02-26T10:11:38;14.70;90.50
17843;DHT22;69286;48.222;16.332;2024-02-26T10:14:08;14.20;90.80
17843;DHT22;69286;48.222;16.332;2024-02-26T10:16:35;13.90;91.30
17843;DHT22;69286;48.222;16.332;2024-02-26T10:19:03;14.20;91.00
17843;DHT22;69286;48.222;16.332;2024-02-26T10:21:30;14.30;90.50
17843;DHT22;69286;48.222;16.332;2024-02-26T10:23:58;14.20;90.50
17843;DHT22;69286;48.222;16.332;2024-02-26T10:26:25;14.40;90.90
17843;DHT22;69286;48.222;16.332;2024-02-26T10:28:52;14.60;90.80
17843;DHT22;69286;48.222;16.332;2024-02-26T10:31:19;14.80;91.00
17843;DHT22;69286;48.222;16.332;2024-02-26T10:33:46;14.60;89.80
17843;DHT22;69286;48.222;16.332;2024-02-26T10:36:13;14.30;90.40
17843;DHT22;69286;48.222;16.332;2024-02-26T10:38:41;14.30;90.80
17843;DHT22;69286;48.222;16.332;2024-02-26T10:41:13;14.20;90.40
17843;DHT22;69286;48.222;16.332;2024-02-26T10:43:42;14.30;90.40
17843;DHT22;69286;48.222;16.332;2024-02-26T10:46:09;14.50;90.20
17843;DHT22;69286;48.222;16.332;2024-02-26T10:48:36;14.80;90.10
17843;DHT22;69286;48.222;16.332;2024-02-26T10:51:04;14.90;89.70
17843;DHT22;69286;48.222;16.332;2024-02-26T10:53:31;15.00;89.80
17843;DHT22;69286;48.222;16.332;2024-02-26T10:56:01;15.10;89.30
17843;DHT22;69286;48.222;16.332;2024-02-26T10:58:32;15.30;89.90
17843;DHT22;69286;48.222;16.332;2024-02-26T11:01:03;15.30;89.30
17843;DHT22;69286;48.222;16.332;2024-02-26T11:03:32;15.40;88.70
17843;DHT22;69286;48.222;16.332;2024-02-26T11:06:01;15.20;89.00
17843;DHT22;69286;48.222;16.332;2024-02-26T11:08:28;15.20;89.30
17843;DHT22;69286;48.222;16.332;2024-02-26T11:10:58;15.20;89.60
17843;DHT22;69286;48.222;16.332;2024-02-26T11:13:28;15.30;89.30
17843;DHT22;69286;48.222;16.332;2024-02-26T11:15:58;15.30;89.40
17843;DHT22;69286;48.222;16.332;2024-02-26T11:18:27;15.00;89.30
17843;DHT22;69286;48.222;16.332;2024-02-26T11:20:54;14.90;89.40
17843;DHT22;69286;48.222;16.332;2024-02-26T11:23:23;14.70;90.20
17843;DHT22;69286;48.222;16.332;2024-02-26T11:25:51;14.60;90.30
17843;DHT22;69286;48.222;16.332;2024-02-26T11:28:19;14.40;90.30
17843;DHT22;69286;48.222;16.332;2024-02-26T11:30:48;14.20;90.50
17843;DHT22;69286;48.222;16.332;2024-02-26T11:33:18;14.20;90.80
17843;DHT22;69286;48.222;16.332;2024-02-26T11:35:46;14.30;90.40
17843;DHT22;69286;48.222;16.332;2024-02-26T11:38:17;14.30;90.30
17843;DHT22;69286;48.222;16.332;2024-02-26T11:40:46;14.30;90.30
17843;DHT22;69286;48.222;16.332;2024-02-26T11:43:14;14.40;89.30
17843;DHT22;69286;48.222;16.332;2024-02-26T11:45:50;14.50;85.40
17843;DHT22;69286;48.222;16.332;2024-02-26T11:48:24;14.50;85.60
17843;DHT22;69286;48.222;16.332;2024-02-26T11:50:52;14.50;85.50
17843;DHT22;69286;48.222;16.332;2024-02-26T11:53:23;14.40;83.90
17843;DHT22;69286;48.222;16.332;2024-02-26T11:56:14;14.30;83.50
17843;DHT22;69286;48.222;16.332;2024-02-26T11:58:46;14.20;82.80
17843;DHT22;69286;48.222;16.332;2024-02-26T12:04:22;14.00;82.30
17843;DHT22;69286;48.222;16.332;2024-02-26T12:06:53;14.00;82.60
17843;DHT22;69286;48.222;16.332;2024-02-26T12:09:31;14.00;83.40
17843;DHT22;69286;48.222;16.332;2024-02-26T12:11:58;14.00;84.00
17843;DHT22;69286;48.222;16.332;2024-02-26T12:14:26;14.00;84.60
17843;DHT22;69286;48.222;16.332;2024-02-26T12:16:53;14.00;84.70
17843;DHT22;69286;48.222;16.332;2024-02-26T12:19:23;14.10;84.70
17843;DHT22;69286;48.222;16.332;2024-02-26T12:21:52;14.20;83.10
17843;DHT22;69286;48.222;16.332;2024-02-26T12:24:20;14.10;82.20
17843;DHT22;69286;48.222;16.332;2024-02-26T12:26:47;14.10;82.50
17843;DHT22;69286;48.222;16.332;2024-02-26T12:29:15;14.20;82.00
17843;DHT22;69286;48.222;16.332;2024-02-26T12:31:42;14.20;81.80
17843;DHT22;69286;48.222;16.332;2024-02-26T12:34:09;14.20;81.80
17843;DHT22;69286;48.222;16.332;2024-02-26T12:36:38;14.30;81.40
17843;DHT22;69286;48.222;16.332;2024-02-26T12:39:06;14.40;81.40
17843;DHT22;69286;48.222;16.332;2024-02-26T12:41:35;14.50;81.50
17843;DHT22;69286;48.222;16.332;2024-02-26T12:44:02;14.50;82.00
17843;DHT22;69286;48.222;16.332;2024-02-26T12:46:29;14.40;82.10
17843;DHT22;69286;48.222;16.332;2024-02-26T12:48:56;14.40;82.40
17843;DHT22;69286;48.222;16.332;2024-02-26T12:51:25;14.40;82.20
17843;DHT22;69286;48.222;16.332;2024-02-26T12:53:54;14.40;82.40
17843;DHT22;69286;48.222;16.332;2024-02-26T12:56:22;14.40;82.40
17843;DHT22;69286;48.222;16.332;2024-02-26T12:58:50;14.50;81.90
17843;DHT22;69286;48.222;16.332;2024-02-26T13:01:20;14.50;82.00
17843;DHT22;69286;48.222;16.332;2024-02-26T13:03:48;14.50;82.40
17843;DHT22;69286;48.222;16.332;2024-02-26T13:06:16;14.40;82.80
17843;DHT22;69286;48.222;16.332;2024-02-26T13:08:44;14.40;82.80
17843;DHT22;69286;48.222;16.332;2024-02-26T13:11:12;14.30;82.40
17843;DHT22;69286;48.222;16.332;2024-02-26T13:13:39;14.20;83.00
17843;DHT22;69286;48.222;16.332;2024-02-26T13:16:08;14.10;82.70
17843;DHT22;69286;48.222;16.332;2024-02-26T13:18:35;14.00;82.70
17843;DHT22;69286;48.222;16.332;2024-02-26T13:21:10;14.10;82.80
17843;DHT22;69286;48.222;16.332;2024-02-26T13:23:43;14.10;82.80
17843;DHT22;69286;48.222;16.332;2024-02-26T13:26:16;14.20;82.50
17843;DHT22;69286;48.222;16.332;2024-02-26T13:28:43;14.10;82.70
17843;DHT22;69286;48.222;16.332;2024-02-26T13:31:10;14.00;82.50
17843;DHT22;69286;48.222;16.332;2024-02-26T13:33:37;14.00;83.00
17843;DHT22;69286;48.222;16.332;2024-02-26T13:36:04;14.00;82.80
17843;DHT22;69286;48.222;16.332;2024-02-26T13:38:31;13.90;83.60
17843;DHT22;69286;48.222;16.332;2024-02-26T13:40:58;13.90;83.20
17843;DHT22;69286;48.222;16.332;2024-02-26T13:43:27;14.00;83.40
17843;DHT22;69286;48.222;16.332;2024-02-26T13:45:54;14.00;83.70
17843;DHT22;69286;48.222;16.332;2024-02-26T13:48:21;14.10;83.50
17843;DHT22;69286;48.222;16.332;2024-02-26T13:50:48;14.10;83.30
17843;DHT22;69286;48.222;16.332;2024-02-26T13:53:15;14.10;82.90
17843;DHT22;69286;48.222;16.332;2024-02-26T13:55:42;14.00;82.80
17843;DHT22;69286;48.222;16.332;2024-02-26T13:58:11;14.00;82.90
17843;DHT22;69286;48.222;16.332;2024-02-26T14:00:40;13.90;82.70
17843;DHT22;69286;48.222;16.332;2024-02-26T14:03:07;13.90;83.00
17843;DHT22;69286;48.222;16.332;2024-02-26T14:05:34;13.90;83.10
17843;DHT22;69286;48.222;16.332;2024-02-26T14:08:02;14.00;82.60
17843;DHT22;69286;48.222;16.332;2024-02-26T14:10:28;14.00;82.40
17843;DHT22;69286;48.222;16.332;2024-02-26T14:12:57;13.90;82.30
17843;DHT22;69286;48.222;16.332;2024-02-26T14:15:24;13.90;82.50
17843;DHT22;69286;48.222;16.332;2024-02-26T14:17:52;13.90;82.90
17843;DHT22;69286;48.222;16.332;2024-02-26T14:20:22;14.00;82.80
17843;DHT22;69286;48.222;16.332;2024-02-26T14:22:49;14.10;82.90
17843;DHT22;69286;48.222;16.332;2024-02-26T14:25:16;14.10;83.40
17843;DHT22;69286;48.222;16.332;2024-02-26T14:27:44;14.20;82.60
17843;DHT22;69286;48.222;16.332;2024-02-26T14:30:11;14.20;82.60
17843;DHT22;69286;48.222;16.332;2024-02-26T14:32:38;14.20;82.60
17843;DHT22;69286;48.222;16.332;2024-02-26T14:35:08;14.20;83.20
17843;DHT22;69286;48.222;16.332;2024-02-26T14:37:35;14.30;83.40
17843;DHT22;69286;48.222;16.332;2024-02-26T14:40:03;14.30;82.40
17843;DHT22;69286;48.222;16.332;2024-02-26T14:42:30;14.10;82.70
17843;DHT22;69286;48.222;16.332;2024-02-26T14:44:57;14.10;82.70
17843;DHT22;69286;48.222;16.332;2024-02-26T14:47:25;14.10;83.10
17843;DHT22;69286;48.222;16.332;2024-02-26T14:49:52;14.10;83.00
17843;DHT22;69286;48.222;16.332;2024-02-26T14:52:20;14.10;83.20
17843;DHT22;69286;48.222;16.332;2024-02-26T14:54:47;14.10;83.50
17843;DHT22;69286;48.222;16.332;2024-02-26T14:57:14;14.00;83.70
17843;DHT22;69286;48.222;16.332;2024-02-26T14:59:41;14.00;84.00
17843;DHT22;69286;48.222;16.332;2024-02-26T15:02:09;13.90;84.20
17843;DHT22;69286;48.222;16.332;2024-02-26T15:04:36;13.80;84.70
17843;DHT22;69286;48.222;16.332;2024-02-26T15:07:04;13.80;84.90
17843;DHT22;69286;48.222;16.332;2024-02-26T15:09:32;13.70;85.90
17843;DHT22;69286;48.222;16.332;2024-02-26T15:12:00;13.60;86.70
17843;DHT22;69286;48.222;16.332;2024-02-26T15:14:28;13.50;87.00
17843;DHT22;69286;48.222;16.332;2024-02-26T15:16:55;13.50;87.60
17843;DHT22;69286;48.222;16.332;2024-02-26T15:19:22;13.40;88.50
17843;DHT22;69286;48.222;16.332;2024-02-26T15:21:49;13.30;88.20
17843;DHT22;69286;48.222;16.332;2024-02-26T15:24:15;13.30;88.40
17843;DHT22;69286;48.222;16.332;2024-02-26T15:26:44;13.30;88.40
17843;DHT22;69286;48.222;16.332;2024-02-26T15:29:11;13.30;88.70